CMA CGM Musca — 2CAC8 — position and weather

sailwx.info

Track history (hours):
 
Tides and Currents Weather Stations Pressure Air Temp Water Temp Dewpoint Dewpoint Depression Visibility Wind Speed Wind Dir Waves Ship Positions

CMA CGM Musca

Last reported at 2014-Nov-25 16:33 UTC. Time now 2014-Nov-28 04:04 UTC.
Position N 49°41' W 000°42'.

Length 347 m; draft 13.7 m.

Type: Ship (hazmat cat A). MMSI: 235070914.

Date/timePositionNaut miles runAvg speedWind from/ knotsBaromVisibWave heightAir tempDewpointWater temp
2014-Nov-25 16:33N 49°41' W 000°42'2020.1
2014-Nov-25 15:33N 49°33' W 000°13'1413.5
2014-Nov-25 14:34N 49°28' E 000°06'2 2.4
2014-Nov-25 13:34N 49°27' E 000°10'0 0.0
2014-Nov-25 12:33N 49°27' E 000°10'0 0.0
2014-Nov-25 11:33N 49°27' E 000°10'0 0.0
2014-Nov-25 10:32N 49°27' E 000°10'0 0.0
2014-Nov-25 09:32N 49°27' E 000°10'0 0.0
2014-Nov-25 08:31N 49°27' E 000°10'0 0.0
2014-Nov-25 07:31N 49°27' E 000°10'0 0.0
2014-Nov-25 06:31N 49°27' E 000°10'0 0.0
2014-Nov-25 05:31N 49°27' E 000°10'0 0.0
2014-Nov-25 04:33N 49°27' E 000°10'0 0.0
2014-Nov-25 03:33N 49°27' E 000°10'0 0.0
2014-Nov-25 02:30N 49°27' E 000°10'0 0.0
2014-Nov-25 01:32N 49°27' E 000°10'0 0.0
2014-Nov-25 00:32N 49°27' E 000°10'0 0.0
2014-Nov-24 23:31N 49°27' E 000°10'0 0.0
2014-Nov-24 22:31N 49°27' E 000°10'0 0.0
2014-Nov-24 21:31N 49°27' E 000°10'0 0.0
2014-Nov-24 20:33N 49°27' E 000°10'4 4.3
2014-Nov-24 19:33N 49°29' E 000°04'1110.8
2014-Nov-24 18:33N 49°33' W 000°12'9 8.7
2014-Nov-24 17:34N 49°39' W 000°21'10 9.6
2014-Nov-24 16:33N 49°47' W 000°29'42 9.4
2014-Nov-24 12:05N 50°26' W 000°53'610.5
2014-Nov-24 11:33N 50°31' W 000°56'1111.0
2014-Nov-24 10:33N 50°42' W 000°57'1414.4
2014-Nov-24 09:33N 50°48' W 001°19'7 7.2
2014-Nov-24 08:33N 50°54' W 001°25'1 1.4
2014-Nov-24 07:32N 50°54' W 001°27'0 0.0
2014-Nov-24 06:25N 50°54' W 001°27'0 0.0
2014-Nov-24 05:31N 50°54' W 001°27'0 0.0
2014-Nov-24 04:31N 50°54' W 001°27'0 0.0
2014-Nov-24 03:33N 50°54' W 001°27'0 0.0
2014-Nov-24 02:27N 50°54' W 001°27'0 0.0
2014-Nov-24 01:32N 50°54' W 001°27'0 0.0
2014-Nov-24 00:32N 50°54' W 001°27'0 0.0
2014-Nov-23 23:28N 50°54' W 001°27'0 0.0
2014-Nov-23 22:25N 50°54' W 001°27'0 0.0
2014-Nov-23 21:28N 50°54' W 001°27'0 0.0
2014-Nov-23 20:27N 50°54' W 001°27'0 0.0
2014-Nov-23 19:33N 50°54' W 001°27'0 0.0
2014-Nov-23 18:32N 50°54' W 001°27'0 0.0
2014-Nov-23 17:32N 50°54' W 001°27'0 0.0
2014-Nov-23 16:28N 50°54' W 001°27'0 0.0
2014-Nov-23 15:31N 50°54' W 001°27'1 0.6
2014-Nov-23 14:33N 50°54' W 001°26'8 7.6
2014-Nov-23 13:33N 50°49' W 001°18'7 7.1
2014-Nov-23 12:33N 50°45' W 001°08'7 6.9
2014-Nov-23 11:33N 50°42' W 000°58'8 7.7
2014-Nov-23 10:34N 50°35' W 000°54'6 6.5
2014-Nov-23 09:33N 50°33' W 000°45'6 6.3
2014-Nov-23 08:33N 50°31' W 000°35'6 6.2
2014-Nov-23 07:33N 50°31' W 000°26'6 4.8
2014-Nov-23 06:17N 50°31' W 000°16'4 5.1
2014-Nov-23 05:34N 50°31' W 000°10'6 6.0
2014-Nov-23 04:31N 50°32' W 000°00'6 6.6
2014-Nov-23 03:34N 50°33' E 000°09'7 6.6
2014-Nov-23 02:34N 50°34' E 000°19'7 6.5
2014-Nov-23 01:34N 50°35' E 000°30'6 6.3
2014-Nov-23 00:34N 50°37' E 000°39'6 6.4
2014-Nov-22 23:34N 50°41' E 000°47'6 6.3
2014-Nov-22 22:34N 50°45' E 000°55'6 6.0
2014-Nov-22 21:34N 50°48' E 001°03'6 5.8
2014-Nov-22 20:33N 50°52' E 001°10'5 5.5
2014-Nov-22 19:34N 50°55' E 001°17'7 6.6
2014-Nov-22 18:34N 50°60' E 001°25'7 7.5
2014-Nov-22 17:34N 51°05' E 001°33'8 7.9
2014-Nov-22 16:33N 51°11' E 001°42'7 7.3
2014-Nov-22 15:34N 51°16' E 001°49'6 6.4
2014-Nov-22 14:34N 51°22' E 001°55'5 5.3
2014-Nov-22 13:33N 51°25' E 002°02'7 6.4
2014-Nov-22 12:32N 51°22' E 002°11'6 6.1
2014-Nov-22 11:34N 51°21' E 002°20'6 6.1
2014-Nov-22 10:32N 51°23' E 002°30'6 5.7
2014-Nov-22 09:33N 51°23' E 002°39'1110.5
2014-Nov-22 08:33N 51°25' E 002°56'1111.6
2014-Nov-22 07:34N 51°21' E 003°12'0 0.5
2014-Nov-22 06:31N 51°20' E 003°12'0 0.0
2014-Nov-22 05:31N 51°20' E 003°12'0 0.0
2014-Nov-22 04:30N 51°20' E 003°12'0 0.0
2014-Nov-22 03:33N 51°20' E 003°12'0 0.0
2014-Nov-22 02:32N 51°20' E 003°12'0 0.0
2014-Nov-22 01:32N 51°20' E 003°12'0 0.0
2014-Nov-22 00:32N 51°20' E 003°12'0 0.0
2014-Nov-21 23:31N 51°20' E 003°12'0 0.0
2014-Nov-21 22:31N 51°20' E 003°12'0 0.0
2014-Nov-21 21:30N 51°20' E 003°12'0 0.0
2014-Nov-21 20:24N 51°20' E 003°12'0 0.0
2014-Nov-21 19:32N 51°20' E 003°12'0 0.0
2014-Nov-21 18:32N 51°20' E 003°12'0 0.0
2014-Nov-21 17:28N 51°20' E 003°12'0 0.0
2014-Nov-21 16:31N 51°20' E 003°12'0 0.0
2014-Nov-21 15:31N 51°20' E 003°12'0 0.0
2014-Nov-21 14:30N 51°20' E 003°12'0 0.0
2014-Nov-21 13:33N 51°20' E 003°12'0 0.0
2014-Nov-21 12:17N 51°20' E 003°12'0 0.0
2014-Nov-21 11:26N 51°20' E 003°12'0 0.0
2014-Nov-21 10:19N 51°20' E 003°12'0 0.0
2014-Nov-21 09:31N 51°20' E 003°12'0 0.0
2014-Nov-21 08:28N 51°20' E 003°12'0 0.0
2014-Nov-21 07:30N 51°20' E 003°12'0 0.0
2014-Nov-21 06:30N 51°20' E 003°12'0 0.0
2014-Nov-21 05:32N 51°20' E 003°12'0 0.0
2014-Nov-21 04:29N 51°20' E 003°12'0 0.0
2014-Nov-21 03:25N 51°20' E 003°12'0 0.0
2014-Nov-21 02:28N 51°20' E 003°12'0 0.0
2014-Nov-21 01:31N 51°20' E 003°12'4 3.5
2014-Nov-21 00:30N 51°23' E 003°09'1515.3
2014-Nov-20 23:32N 51°24' E 002°45'3 3.0
2014-Nov-20 22:30N 51°26' E 002°41'8 8.7
2014-Nov-20 21:34N 51°33' E 002°47'10 9.9
2014-Nov-20 20:32N 51°42' E 002°57'1111.5
2014-Nov-20 19:32N 51°49' E 003°10'1311.4
2014-Nov-20 18:23N 52°01' E 003°20'910.9
2014-Nov-20 17:33N 52°03' E 003°35'1212.0
2014-Nov-20 16:34N 52°03' E 003°54'9 8.5
2014-Nov-20 15:33N 51°57' E 004°04'0 0.1
2014-Nov-20 14:31N 51°57' E 004°04'0 0.0
2014-Nov-20 13:31N 51°57' E 004°04'0 0.0
2014-Nov-20 12:31N 51°57' E 004°04'0 0.0
2014-Nov-20 11:33N 51°57' E 004°04'0 0.0
2014-Nov-20 10:33N 51°57' E 004°04'0 0.0
2014-Nov-20 09:33N 51°57' E 004°04'0 0.1
2014-Nov-20 08:33N 51°57' E 004°04'0 0.1
2014-Nov-20 07:31N 51°57' E 004°04'0 0.0
2014-Nov-20 06:28N 51°57' E 004°04'0 0.0
2014-Nov-20 05:33N 51°57' E 004°04'0 0.0
2014-Nov-20 04:33N 51°57' E 004°04'0 0.0
2014-Nov-20 03:33N 51°57' E 004°04'0 0.0
2014-Nov-20 02:33N 51°57' E 004°04'0 0.0
2014-Nov-20 01:29N 51°57' E 004°04'0 0.0
2014-Nov-20 00:32N 51°57' E 004°04'0 0.0
2014-Nov-19 23:26N 51°57' E 004°04'0 0.0
2014-Nov-19 22:31N 51°57' E 004°04'0 0.1
2014-Nov-19 21:33N 51°57' E 004°04'7 3.4
2014-Nov-19 19:33N 51°59' E 003°54'4 4.0
2014-Nov-19 18:33N 52°01' E 003°48'1616.4
2014-Nov-19 17:33N 52°17' E 003°48'2622.0
2014-Nov-19 16:22N 52°43' E 003°54'3920.3
2014-Nov-19 14:28N 53°16' E 004°27'1820.2
2014-Nov-19 13:34N 53°31' E 004°45'2121.4
2014-Nov-19 12:33N 53°38' E 005°19'2322.5
2014-Nov-19 11:34N 53°46' E 005°55'5819.3
2014-Nov-19 08:34N 53°60' E 007°30'1615.8
2014-Nov-19 07:33N 53°52' E 007°54'1616.2
2014-Nov-19 06:34N 53°43' E 008°17'1211.9
2014-Nov-19 05:33N 53°35' E 008°31'1 0.7
2014-Nov-19 04:32N 53°35' E 008°32'0 0.0
2014-Nov-19 03:31N 53°35' E 008°32'0 0.0
2014-Nov-19 02:31N 53°35' E 008°32'0 0.0
2014-Nov-19 01:33N 53°35' E 008°32'0 0.0
2014-Nov-19 00:33N 53°35' E 008°32'0 0.0
2014-Nov-18 23:32N 53°35' E 008°32'0 0.0
2014-Nov-18 22:32N 53°35' E 008°32'0 0.0
2014-Nov-18 21:32N 53°35' E 008°32'0 0.0
2014-Nov-18 20:31N 53°35' E 008°32'0 0.0
2014-Nov-18 19:31N 53°35' E 008°32'0 0.0
2014-Nov-18 18:33N 53°35' E 008°32'0 0.0
2014-Nov-18 17:33N 53°35' E 008°32'0 0.0
2014-Nov-18 16:32N 53°35' E 008°32'0 0.0
2014-Nov-18 15:32N 53°35' E 008°32'0 0.0
2014-Nov-18 14:32N 53°35' E 008°32'0 0.0
2014-Nov-18 13:31N 53°35' E 008°32'0 0.0
2014-Nov-18 12:31N 53°35' E 008°32'0 0.0
2014-Nov-18 11:33N 53°35' E 008°32'0 0.0
2014-Nov-18 10:33N 53°35' E 008°32'0 0.0
2014-Nov-18 09:32N 53°35' E 008°32'0 0.0
2014-Nov-18 08:32N 53°35' E 008°32'0 0.0
2014-Nov-18 07:32N 53°35' E 008°32'0 0.0
2014-Nov-18 06:32N 53°35' E 008°32'4 3.8
2014-Nov-18 05:33N 53°37' E 008°28'1717.1
2014-Nov-18 04:33N 53°49' E 008°07'1515.5
2014-Nov-18 03:34N 53°54' E 007°42'9 9.0
2014-Nov-18 02:33N 54°02' E 007°49'1414.2
2014-Nov-18 01:33N 54°00' E 008°13'1616.4
2014-Nov-18 00:34N 53°56' E 008°40'1514.6
2014-Nov-17 23:34N 53°52' E 009°03'1413.1
2014-Nov-17 22:29N 53°45' E 009°24'1112.4
2014-Nov-17 21:33N 53°36' E 009°36'10 9.6
2014-Nov-17 20:33N 53°33' E 009°51'3 2.5
2014-Nov-17 19:32N 53°32' E 009°55'0 0.0
2014-Nov-17 18:32N 53°32' E 009°55'0 0.0
2014-Nov-17 17:31N 53°32' E 009°55'0 0.0
2014-Nov-17 16:31N 53°32' E 009°55'0 0.0
2014-Nov-17 15:24N 53°32' E 009°55'0 0.0
2014-Nov-17 14:33N 53°32' E 009°55'0 0.0
2014-Nov-17 13:26N 53°32' E 009°55'0 0.0
2014-Nov-17 12:33N 53°32' E 009°55'0 0.0
2014-Nov-17 11:28N 53°32' E 009°55'0 0.0
2014-Nov-17 10:28N 53°32' E 009°55'0 0.0
2014-Nov-17 09:31N 53°32' E 009°55'0 0.0
2014-Nov-17 08:33N 53°32' E 009°55'0 0.0
2014-Nov-17 07:33N 53°32' E 009°55'0 0.0
2014-Nov-17 06:32N 53°32' E 009°55'0 0.0
2014-Nov-17 05:32N 53°32' E 009°55'0 0.0
2014-Nov-17 04:31N 53°32' E 009°55'0 0.0
2014-Nov-17 03:30N 53°32' E 009°55'0 0.0
2014-Nov-17 02:30N 53°32' E 009°55'0 0.0
2014-Nov-17 01:33N 53°32' E 009°55'0 0.0
2014-Nov-17 00:32N 53°32' E 009°55'0 0.0
2014-Nov-16 23:32N 53°32' E 009°55'0 0.0
2014-Nov-16 22:28N 53°32' E 009°55'0 0.0
2014-Nov-16 21:33N 53°32' E 009°55'0 0.0
2014-Nov-16 20:33N 53°32' E 009°55'0 0.0
2014-Nov-16 19:33N 53°32' E 009°55'0 0.0
2014-Nov-16 18:32N 53°32' E 009°55'0 0.0
2014-Nov-16 17:32N 53°32' E 009°55'0 0.0
2014-Nov-16 16:31N 53°32' E 009°55'0 0.0
2014-Nov-16 15:31N 53°32' E 009°55'0 0.0
2014-Nov-16 14:30N 53°32' E 009°55'0 0.0
2014-Nov-16 13:33N 53°32' E 009°55'0 0.0
2014-Nov-16 12:33N 53°32' E 009°55'0 0.0
2014-Nov-16 11:32N 53°32' E 009°55'0 0.0
2014-Nov-16 10:29N 53°32' E 009°55'0 0.0
2014-Nov-16 09:32N 53°32' E 009°55'0 0.0
2014-Nov-16 08:28N 53°32' E 009°55'0 0.0
2014-Nov-16 07:33N 53°32' E 009°55'0 0.0
2014-Nov-16 06:33N 53°32' E 009°55'0 0.0
2014-Nov-16 05:33N 53°32' E 009°55'0 0.0
2014-Nov-16 04:32N 53°32' E 009°55'0 0.0
2014-Nov-16 03:32N 53°32' E 009°55'0 0.0
2014-Nov-16 02:31N 53°32' E 009°55'0 0.0
2014-Nov-16 01:31N 53°32' E 009°55'0 0.0
2014-Nov-16 00:33N 53°32' E 009°55'0 0.0
2014-Nov-15 23:33N 53°32' E 009°55'0 0.0
2014-Nov-15 22:33N 53°32' E 009°55'0 0.0
2014-Nov-15 21:33N 53°32' E 009°55'0 0.0
2014-Nov-15 20:32N 53°32' E 009°55'0 0.0
2014-Nov-15 19:32N 53°32' E 009°55'0 0.4
2014-Nov-15 18:33N 53°32' E 009°54'6 6.4
2014-Nov-15 17:33N 53°34' E 009°44'1111.2
2014-Nov-15 16:33N 53°41' E 009°30'  
Track history (hours):
 
Tides and Currents Weather Stations Pressure Air Temp Water Temp Dewpoint Dewpoint Depression Visibility Wind Speed Wind Dir Waves Ship Positions

CMA CGM Musca

Last reported at 2014-Nov-25 16:33 UTC. Time now 2014-Nov-28 04:04 UTC.
Position N 49°41' W 000°42'.

Length 347 m; draft 13.7 m.

Type: Ship (hazmat cat A). MMSI: 235070914.

Date/timePositionNaut miles runAvg speedWind from/ knotsBaromVisibWave heightAir tempDewpointWater temp
2014-Nov-25 16:33N 49°41' W 000°42'2020.1
2014-Nov-25 15:33N 49°33' W 000°13'1413.5
2014-Nov-25 14:34N 49°28' E 000°06'2 2.4
2014-Nov-25 13:34N 49°27' E 000°10'0 0.0
2014-Nov-25 12:33N 49°27' E 000°10'0 0.0
2014-Nov-25 11:33N 49°27' E 000°10'0 0.0
2014-Nov-25 10:32N 49°27' E 000°10'0 0.0
2014-Nov-25 09:32N 49°27' E 000°10'0 0.0
2014-Nov-25 08:31N 49°27' E 000°10'0 0.0
2014-Nov-25 07:31N 49°27' E 000°10'0 0.0
2014-Nov-25 06:31N 49°27' E 000°10'0 0.0
2014-Nov-25 05:31N 49°27' E 000°10'0 0.0
2014-Nov-25 04:33N 49°27' E 000°10'0 0.0
2014-Nov-25 03:33N 49°27' E 000°10'0 0.0
2014-Nov-25 02:30N 49°27' E 000°10'0 0.0
2014-Nov-25 01:32N 49°27' E 000°10'0 0.0
2014-Nov-25 00:32N 49°27' E 000°10'0 0.0
2014-Nov-24 23:31N 49°27' E 000°10'0 0.0
2014-Nov-24 22:31N 49°27' E 000°10'0 0.0
2014-Nov-24 21:31N 49°27' E 000°10'0 0.0
2014-Nov-24 20:33N 49°27' E 000°10'4 4.3
2014-Nov-24 19:33N 49°29' E 000°04'1110.8
2014-Nov-24 18:33N 49°33' W 000°12'9 8.7
2014-Nov-24 17:34N 49°39' W 000°21'10 9.6
2014-Nov-24 16:33N 49°47' W 000°29'42 9.4
2014-Nov-24 12:05N 50°26' W 000°53'610.5
2014-Nov-24 11:33N 50°31' W 000°56'1111.0
2014-Nov-24 10:33N 50°42' W 000°57'1414.4
2014-Nov-24 09:33N 50°48' W 001°19'7 7.2
2014-Nov-24 08:33N 50°54' W 001°25'1 1.4
2014-Nov-24 07:32N 50°54' W 001°27'0 0.0
2014-Nov-24 06:25N 50°54' W 001°27'0 0.0
2014-Nov-24 05:31N 50°54' W 001°27'0 0.0
2014-Nov-24 04:31N 50°54' W 001°27'0 0.0
2014-Nov-24 03:33N 50°54' W 001°27'0 0.0
2014-Nov-24 02:27N 50°54' W 001°27'0 0.0
2014-Nov-24 01:32N 50°54' W 001°27'0 0.0
2014-Nov-24 00:32N 50°54' W 001°27'0 0.0
2014-Nov-23 23:28N 50°54' W 001°27'0 0.0
2014-Nov-23 22:25N 50°54' W 001°27'0 0.0
2014-Nov-23 21:28N 50°54' W 001°27'0 0.0
2014-Nov-23 20:27N 50°54' W 001°27'0 0.0
2014-Nov-23 19:33N 50°54' W 001°27'0 0.0
2014-Nov-23 18:32N 50°54' W 001°27'0 0.0
2014-Nov-23 17:32N 50°54' W 001°27'0 0.0
2014-Nov-23 16:28N 50°54' W 001°27'0 0.0
2014-Nov-23 15:31N 50°54' W 001°27'1 0.6
2014-Nov-23 14:33N 50°54' W 001°26'8 7.6
2014-Nov-23 13:33N 50°49' W 001°18'7 7.1
2014-Nov-23 12:33N 50°45' W 001°08'7 6.9
2014-Nov-23 11:33N 50°42' W 000°58'8 7.7
2014-Nov-23 10:34N 50°35' W 000°54'6 6.5
2014-Nov-23 09:33N 50°33' W 000°45'6 6.3
2014-Nov-23 08:33N 50°31' W 000°35'6 6.2
2014-Nov-23 07:33N 50°31' W 000°26'6 4.8
2014-Nov-23 06:17N 50°31' W 000°16'4 5.1
2014-Nov-23 05:34N 50°31' W 000°10'6 6.0
2014-Nov-23 04:31N 50°32' W 000°00'6 6.6
2014-Nov-23 03:34N 50°33' E 000°09'7 6.6
2014-Nov-23 02:34N 50°34' E 000°19'7 6.5
2014-Nov-23 01:34N 50°35' E 000°30'6 6.3
2014-Nov-23 00:34N 50°37' E 000°39'6 6.4
2014-Nov-22 23:34N 50°41' E 000°47'6 6.3
2014-Nov-22 22:34N 50°45' E 000°55'6 6.0
2014-Nov-22 21:34N 50°48' E 001°03'6 5.8
2014-Nov-22 20:33N 50°52' E 001°10'5 5.5
2014-Nov-22 19:34N 50°55' E 001°17'7 6.6
2014-Nov-22 18:34N 50°60' E 001°25'7 7.5
2014-Nov-22 17:34N 51°05' E 001°33'8 7.9
2014-Nov-22 16:33N 51°11' E 001°42'7 7.3
2014-Nov-22 15:34N 51°16' E 001°49'6 6.4
2014-Nov-22 14:34N 51°22' E 001°55'5 5.3
2014-Nov-22 13:33N 51°25' E 002°02'7 6.4
2014-Nov-22 12:32N 51°22' E 002°11'6 6.1
2014-Nov-22 11:34N 51°21' E 002°20'6 6.1
2014-Nov-22 10:32N 51°23' E 002°30'6 5.7
2014-Nov-22 09:33N 51°23' E 002°39'1110.5
2014-Nov-22 08:33N 51°25' E 002°56'1111.6
2014-Nov-22 07:34N 51°21' E 003°12'0 0.5
2014-Nov-22 06:31N 51°20' E 003°12'0 0.0
2014-Nov-22 05:31N 51°20' E 003°12'0 0.0
2014-Nov-22 04:30N 51°20' E 003°12'0 0.0
2014-Nov-22 03:33N 51°20' E 003°12'0 0.0
2014-Nov-22 02:32N 51°20' E 003°12'0 0.0
2014-Nov-22 01:32N 51°20' E 003°12'0 0.0
2014-Nov-22 00:32N 51°20' E 003°12'0 0.0
2014-Nov-21 23:31N 51°20' E 003°12'0 0.0
2014-Nov-21 22:31N 51°20' E 003°12'0 0.0
2014-Nov-21 21:30N 51°20' E 003°12'0 0.0
2014-Nov-21 20:24N 51°20' E 003°12'0 0.0
2014-Nov-21 19:32N 51°20' E 003°12'0 0.0
2014-Nov-21 18:32N 51°20' E 003°12'0 0.0
2014-Nov-21 17:28N 51°20' E 003°12'0 0.0
2014-Nov-21 16:31N 51°20' E 003°12'0 0.0
2014-Nov-21 15:31N 51°20' E 003°12'0 0.0
2014-Nov-21 14:30N 51°20' E 003°12'0 0.0
2014-Nov-21 13:33N 51°20' E 003°12'0 0.0
2014-Nov-21 12:17N 51°20' E 003°12'0 0.0
2014-Nov-21 11:26N 51°20' E 003°12'0 0.0
2014-Nov-21 10:19N 51°20' E 003°12'0 0.0
2014-Nov-21 09:31N 51°20' E 003°12'0 0.0
2014-Nov-21 08:28N 51°20' E 003°12'0 0.0
2014-Nov-21 07:30N 51°20' E 003°12'0 0.0
2014-Nov-21 06:30N 51°20' E 003°12'0 0.0
2014-Nov-21 05:32N 51°20' E 003°12'0 0.0
2014-Nov-21 04:29N 51°20' E 003°12'0 0.0
2014-Nov-21 03:25N 51°20' E 003°12'0 0.0
2014-Nov-21 02:28N 51°20' E 003°12'0 0.0
2014-Nov-21 01:31N 51°20' E 003°12'4 3.5
2014-Nov-21 00:30N 51°23' E 003°09'1515.3
2014-Nov-20 23:32N 51°24' E 002°45'3 3.0
2014-Nov-20 22:30N 51°26' E 002°41'8 8.7
2014-Nov-20 21:34N 51°33' E 002°47'10 9.9
2014-Nov-20 20:32N 51°42' E 002°57'1111.5
2014-Nov-20 19:32N 51°49' E 003°10'1311.4
2014-Nov-20 18:23N 52°01' E 003°20'910.9
2014-Nov-20 17:33N 52°03' E 003°35'1212.0
2014-Nov-20 16:34N 52°03' E 003°54'9 8.5
2014-Nov-20 15:33N 51°57' E 004°04'0 0.1
2014-Nov-20 14:31N 51°57' E 004°04'0 0.0
2014-Nov-20 13:31N 51°57' E 004°04'0 0.0
2014-Nov-20 12:31N 51°57' E 004°04'0 0.0
2014-Nov-20 11:33N 51°57' E 004°04'0 0.0
2014-Nov-20 10:33N 51°57' E 004°04'0 0.0
2014-Nov-20 09:33N 51°57' E 004°04'0 0.1
2014-Nov-20 08:33N 51°57' E 004°04'0 0.1
2014-Nov-20 07:31N 51°57' E 004°04'0 0.0
2014-Nov-20 06:28N 51°57' E 004°04'0 0.0
2014-Nov-20 05:33N 51°57' E 004°04'0 0.0
2014-Nov-20 04:33N 51°57' E 004°04'0 0.0
2014-Nov-20 03:33N 51°57' E 004°04'0 0.0
2014-Nov-20 02:33N 51°57' E 004°04'0 0.0
2014-Nov-20 01:29N 51°57' E 004°04'0 0.0
2014-Nov-20 00:32N 51°57' E 004°04'0 0.0
2014-Nov-19 23:26N 51°57' E 004°04'0 0.0
2014-Nov-19 22:31N 51°57' E 004°04'0 0.1
2014-Nov-19 21:33N 51°57' E 004°04'7 3.4
2014-Nov-19 19:33N 51°59' E 003°54'4 4.0
2014-Nov-19 18:33N 52°01' E 003°48'1616.4
2014-Nov-19 17:33N 52°17' E 003°48'2622.0
2014-Nov-19 16:22N 52°43' E 003°54'3920.3
2014-Nov-19 14:28N 53°16' E 004°27'1820.2
2014-Nov-19 13:34N 53°31' E 004°45'2121.4
2014-Nov-19 12:33N 53°38' E 005°19'2322.5
2014-Nov-19 11:34N 53°46' E 005°55'5819.3
2014-Nov-19 08:34N 53°60' E 007°30'1615.8
2014-Nov-19 07:33N 53°52' E 007°54'1616.2
2014-Nov-19 06:34N 53°43' E 008°17'1211.9
2014-Nov-19 05:33N 53°35' E 008°31'1 0.7
2014-Nov-19 04:32N 53°35' E 008°32'0 0.0
2014-Nov-19 03:31N 53°35' E 008°32'0 0.0
2014-Nov-19 02:31N 53°35' E 008°32'0 0.0
2014-Nov-19 01:33N 53°35' E 008°32'0 0.0
2014-Nov-19 00:33N 53°35' E 008°32'0 0.0
2014-Nov-18 23:32N 53°35' E 008°32'0 0.0
2014-Nov-18 22:32N 53°35' E 008°32'0 0.0
2014-Nov-18 21:32N 53°35' E 008°32'0 0.0
2014-Nov-18 20:31N 53°35' E 008°32'0 0.0
2014-Nov-18 19:31N 53°35' E 008°32'0 0.0
2014-Nov-18 18:33N 53°35' E 008°32'0 0.0
2014-Nov-18 17:33N 53°35' E 008°32'0 0.0
2014-Nov-18 16:32N 53°35' E 008°32'0 0.0
2014-Nov-18 15:32N 53°35' E 008°32'0 0.0
2014-Nov-18 14:32N 53°35' E 008°32'0 0.0
2014-Nov-18 13:31N 53°35' E 008°32'0 0.0
2014-Nov-18 12:31N 53°35' E 008°32'0 0.0
2014-Nov-18 11:33N 53°35' E 008°32'0 0.0
2014-Nov-18 10:33N 53°35' E 008°32'0 0.0
2014-Nov-18 09:32N 53°35' E 008°32'0 0.0
2014-Nov-18 08:32N 53°35' E 008°32'0 0.0
2014-Nov-18 07:32N 53°35' E 008°32'0 0.0
2014-Nov-18 06:32N 53°35' E 008°32'4 3.8
2014-Nov-18 05:33N 53°37' E 008°28'1717.1
2014-Nov-18 04:33N 53°49' E 008°07'1515.5
2014-Nov-18 03:34N 53°54' E 007°42'9 9.0
2014-Nov-18 02:33N 54°02' E 007°49'1414.2
2014-Nov-18 01:33N 54°00' E 008°13'1616.4
2014-Nov-18 00:34N 53°56' E 008°40'1514.6
2014-Nov-17 23:34N 53°52' E 009°03'1413.1
2014-Nov-17 22:29N 53°45' E 009°24'1112.4
2014-Nov-17 21:33N 53°36' E 009°36'10 9.6
2014-Nov-17 20:33N 53°33' E 009°51'3 2.5
2014-Nov-17 19:32N 53°32' E 009°55'0 0.0
2014-Nov-17 18:32N 53°32' E 009°55'0 0.0
2014-Nov-17 17:31N 53°32' E 009°55'0 0.0
2014-Nov-17 16:31N 53°32' E 009°55'0 0.0
2014-Nov-17 15:24N 53°32' E 009°55'0 0.0
2014-Nov-17 14:33N 53°32' E 009°55'0 0.0
2014-Nov-17 13:26N 53°32' E 009°55'0 0.0
2014-Nov-17 12:33N 53°32' E 009°55'0 0.0
2014-Nov-17 11:28N 53°32' E 009°55'0 0.0
2014-Nov-17 10:28N 53°32' E 009°55'0 0.0
2014-Nov-17 09:31N 53°32' E 009°55'0 0.0
2014-Nov-17 08:33N 53°32' E 009°55'0 0.0
2014-Nov-17 07:33N 53°32' E 009°55'0 0.0
2014-Nov-17 06:32N 53°32' E 009°55'0 0.0
2014-Nov-17 05:32N 53°32' E 009°55'0 0.0
2014-Nov-17 04:31N 53°32' E 009°55'0 0.0
2014-Nov-17 03:30N 53°32' E 009°55'0 0.0
2014-Nov-17 02:30N 53°32' E 009°55'0 0.0
2014-Nov-17 01:33N 53°32' E 009°55'0 0.0
2014-Nov-17 00:32N 53°32' E 009°55'0 0.0
2014-Nov-16 23:32N 53°32' E 009°55'0 0.0
2014-Nov-16 22:28N 53°32' E 009°55'0 0.0
2014-Nov-16 21:33N 53°32' E 009°55'0 0.0
2014-Nov-16 20:33N 53°32' E 009°55'0 0.0
2014-Nov-16 19:33N 53°32' E 009°55'0 0.0
2014-Nov-16 18:32N 53°32' E 009°55'0 0.0
2014-Nov-16 17:32N 53°32' E 009°55'0 0.0
2014-Nov-16 16:31N 53°32' E 009°55'0 0.0
2014-Nov-16 15:31N 53°32' E 009°55'0 0.0
2014-Nov-16 14:30N 53°32' E 009°55'0 0.0
2014-Nov-16 13:33N 53°32' E 009°55'0 0.0
2014-Nov-16 12:33N 53°32' E 009°55'0 0.0
2014-Nov-16 11:32N 53°32' E 009°55'0 0.0
2014-Nov-16 10:29N 53°32' E 009°55'0 0.0
2014-Nov-16 09:32N 53°32' E 009°55'0 0.0
2014-Nov-16 08:28N 53°32' E 009°55'0 0.0
2014-Nov-16 07:33N 53°32' E 009°55'0 0.0
2014-Nov-16 06:33N 53°32' E 009°55'0 0.0
2014-Nov-16 05:33N 53°32' E 009°55'0 0.0
2014-Nov-16 04:32N 53°32' E 009°55'0 0.0
2014-Nov-16 03:32N 53°32' E 009°55'0 0.0
2014-Nov-16 02:31N 53°32' E 009°55'0 0.0
2014-Nov-16 01:31N 53°32' E 009°55'0 0.0
2014-Nov-16 00:33N 53°32' E 009°55'0 0.0
2014-Nov-15 23:33N 53°32' E 009°55'0 0.0
2014-Nov-15 22:33N 53°32' E 009°55'0 0.0
2014-Nov-15 21:33N 53°32' E 009°55'0 0.0
2014-Nov-15 20:32N 53°32' E 009°55'0 0.0
2014-Nov-15 19:32N 53°32' E 009°55'0 0.4
2014-Nov-15 18:33N 53°32' E 009°54'6 6.4
2014-Nov-15 17:33N 53°34' E 009°44'1111.2
2014-Nov-15 16:33N 53°41' E 009°30'  

Dump ship's entire track history